Time;durP1;ratioP1;P1;durP2;ratioP2;P2;SDS_P1;SDS_P2;PMS_P1;PMS_P2;Temp;Humidity;BMP_temperature;BMP_pressure;BME280_temperature;BME280_humidity;BME280_pressure;Samples;Min_cycle;Max_cycle;Signal;HPM_P1;HPM_P2
2023/04/16 00:02:44;;;;;;;4.63;1.60;;;;;;;13.56;60.81;98905.56;5101471;28;20192;-57
2023/04/16 00:05:28;;;;;;;3.80;1.60;;;;;;;13.48;60.88;98899.06;5100656;28;20195;-56
2023/04/16 00:08:16;;;;;;;2.47;2.00;;;;;;;13.48;61.34;98910.31;5101723;28;20671;-56
2023/04/16 00:11:09;;;;;;;7.83;1.93;;;;;;;13.45;61.12;98900.03;5099820;28;20558;-57
2023/04/16 00:13:56;;;;;;;2.63;1.83;;;;;;;13.32;61.80;98906.78;5098976;28;20597;-56
2023/04/16 00:16:50;;;;;;;4.17;2.20;;;;;;;13.37;62.18;98899.59;5099817;28;20690;-56
2023/04/16 00:19:48;;;;;;;3.30;1.67;;;;;;;13.45;62.00;98897.44;5101445;28;20202;-57
2023/04/16 00:22:20;;;;;;;3.80;1.90;;;;;;;13.47;62.00;98900.81;5097795;28;20200;-57
2023/04/16 00:25:14;;;;;;;1.83;1.57;;;;;;;13.59;61.22;98905.41;5098878;28;20205;-57
2023/04/16 00:28:07;;;;;;;2.23;2.00;;;;;;;13.64;61.21;98910.41;5097972;28;20195;-56
2023/04/16 00:30:58;;;;;;;4.10;2.10;;;;;;;13.71;61.13;98915.22;5100728;28;20245;-57
2023/04/16 00:33:52;;;;;;;4.13;2.10;;;;;;;13.74;60.74;98920.28;5101044;28;20671;-56
2023/04/16 00:36:51;;;;;;;5.23;2.30;;;;;;;13.69;61.05;98919.66;5097427;28;20230;-56
2023/04/16 00:39:36;;;;;;;4.93;1.87;;;;;;;13.81;60.71;98926.03;5096860;28;20223;-57
2023/04/16 00:42:24;;;;;;;5.63;1.93;;;;;;;13.75;61.00;98929.81;5099382;28;20192;-56
2023/04/16 00:45:04;;;;;;;3.73;2.00;;;;;;;13.79;60.94;98927.88;5094806;28;20192;-56
2023/04/16 00:48:03;;;;;;;5.70;2.20;;;;;;;13.77;61.04;98933.16;5100175;28;20198;-56
2023/04/16 00:50:53;;;;;;;4.03;2.10;;;;;;;13.76;61.16;98930.66;5101468;28;20572;-56
2023/04/16 00:53:46;;;;;;;2.40;1.77;;;;;;;13.72;61.39;98932.56;5098533;28;20183;-48
2023/04/16 00:56:43;;;;;;;3.90;2.00;;;;;;;13.66;61.63;98926.78;5100669;28;20195;-56
2023/04/16 00:59:34;;;;;;;1.90;1.77;;;;;;;13.68;61.51;98910.16;5097555;28;20191;-56
2023/04/16 01:02:22;;;;;;;3.77;2.10;;;;;;;13.72;61.43;98919.53;5098334;28;20218;-56
2023/04/16 01:08:01;;;;;;;4.97;2.20;;;;;;;13.74;61.99;98915.06;5099663;28;20562;-56
2023/04/16 01:11:17;;;;;;;4.47;2.27;;;;;;;13.77;61.61;98914.06;5099827;28;20393;-56
2023/04/16 01:14:01;;;;;;;3.00;1.77;;;;;;;13.65;62.75;98910.34;5096550;28;20187;-56
2023/04/16 01:16:47;;;;;;;4.53;1.87;;;;;;;13.70;62.69;98915.28;5098461;28;20198;-57
2023/04/16 01:19:30;;;;;;;5.27;1.90;;;;;;;13.69;62.99;98913.59;5099455;28;20191;-57
2023/04/16 01:22:08;;;;;;;6.13;2.00;;;;;;;13.65;63.17;98920.78;5097817;28;20651;-56
2023/04/16 01:24:58;;;;;;;4.60;1.90;;;;;;;13.56;63.65;98925.56;5098537;28;20193;-56
2023/04/16 01:28:00;;;;;;;;;;;;;;;;;;;;;
2023/04/16 01:33:40;;;;;;;3.77;2.20;;;;;;;13.47;65.10;98915.63;5099331;28;20607;-49
2023/04/16 01:36:25;;;;;;;8.63;2.30;;;;;;;13.24;65.51;98909.78;5096549;28;20221;-49
2023/04/16 01:39:16;;;;;;;3.80;2.07;;;;;;;13.35;65.78;98917.91;5098941;28;20815;-50
2023/04/16 01:42:10;;;;;;;6.17;2.30;;;;;;;13.36;66.49;98918.75;5098156;28;20280;-49
2023/04/16 01:44:50;;;;;;;3.53;2.17;;;;;;;13.29;67.25;98915.63;5093822;28;20562;-57
2023/04/16 01:47:38;;;;;;;10.53;3.07;;;;;;;13.30;67.72;98919.06;5095859;28;20570;-57
2023/04/16 01:50:23;;;;;;;4.20;2.60;;;;;;;13.24;68.45;98917.59;5098511;28;20195;-49
2023/04/16 01:53:08;;;;;;;3.17;2.60;;;;;;;13.25;68.91;98921.03;5096986;28;20308;-48
2023/04/16 01:56:13;;;;;;;4.17;2.97;;;;;;;13.30;69.27;98914.72;5098690;28;20235;-48
2023/04/16 01:59:04;;;;;;;5.37;2.93;;;;;;;13.15;70.14;98906.78;5099859;28;20685;-49
2023/04/16 02:02:01;;;;;;;5.17;2.70;;;;;;;13.00;70.79;98905.72;5096288;28;20191;-56
2023/04/16 02:04:58;;;;;;;3.30;2.70;;;;;;;12.97;71.29;98900.69;5096700;28;20190;-57
2023/04/16 02:07:47;;;;;;;7.03;2.87;;;;;;;13.00;71.42;98896.16;5096619;28;20617;-56
2023/04/16 02:10:31;;;;;;;4.17;2.77;;;;;;;12.93;71.95;98907.78;5099264;28;20194;-58
2023/04/16 02:13:24;;;;;;;7.47;2.87;;;;;;;12.96;72.02;98902.44;5095874;28;20302;-57
2023/04/16 02:16:15;;;;;;;4.63;2.83;;;;;;;12.99;72.26;98899.66;5095301;28;20588;-56
2023/04/16 02:19:13;;;;;;;6.60;2.90;;;;;;;12.89;72.95;98898.44;5097751;28;20594;-56
2023/04/16 02:22:01;;;;;;;4.93;3.03;;;;;;;12.70;73.99;98903.69;5099542;28;20187;-50
2023/04/16 02:24:47;;;;;;;3.80;2.70;;;;;;;12.78;73.21;98895.50;5094781;28;20196;-49
2023/04/16 02:27:40;;;;;;;7.27;3.20;;;;;;;12.77;73.19;98900.78;5099061;28;20222;-49
2023/04/16 02:30:44;;;;;;;4.80;2.50;;;;;;;12.63;73.78;98906.66;5098906;28;20208;-49
2023/04/16 02:33:32;;;;;;;4.10;2.87;;;;;;;12.55;74.05;98913.94;5098259;28;20214;-56
2023/04/16 02:36:18;;;;;;;4.57;3.17;;;;;;;12.60;73.82;98906.78;5092679;28;20235;-56
2023/04/16 02:39:10;;;;;;;3.17;2.70;;;;;;;12.54;72.65;98914.88;5095900;28;20784;-57
2023/04/16 02:42:04;;;;;;;5.83;3.27;;;;;;;12.49;72.75;98912.50;5099608;28;20230;-58
2023/04/16 02:44:46;;;;;;;5.67;3.10;;;;;;;12.48;72.86;98912.56;5096332;28;20277;-50
2023/04/16 02:47:43;;;;;;;;;;;;;;;;;;;;;
2023/04/16 02:50:45;;;;;;;3.10;2.83;;;;;;;12.30;73.53;98917.66;5088591;28;20203;-49
2023/04/16 02:53:44;;;;;;;5.50;3.13;;;;;;;12.21;74.88;98917.25;5098222;28;20215;-50
2023/04/16 02:56:29;;;;;;;4.57;2.80;;;;;;;12.16;75.83;98912.28;5098079;28;20241;-48
2023/04/16 02:59:07;;;;;;;5.50;3.10;;;;;;;12.08;77.33;98911.75;5098942;28;20195;-48
2023/04/16 03:02:06;;;;;;;3.33;3.03;;;;;;;12.06;77.75;98924.00;5093702;28;20199;-49
2023/04/16 03:04:44;;;;;;;5.03;3.23;;;;;;;11.95;77.63;98926.22;5098570;28;20276;-49
2023/04/16 03:07:22;;;;;;;4.73;3.53;;;;;;;11.91;78.42;98924.66;5098067;28;20199;-48
2023/04/16 03:10:12;;;;;;;6.40;2.90;;;;;;;11.77;78.98;98906.22;5096708;28;20663;-48
2023/04/16 03:12:53;;;;;;;6.63;3.37;;;;;;;11.79;79.54;98922.59;5098778;28;20306;-48
2023/04/16 03:15:41;;;;;;;7.40;3.50;;;;;;;11.72;80.30;98921.16;5096245;28;20232;-48
2023/04/16 03:18:32;;;;;;;4.10;3.33;;;;;;;11.73;79.95;98928.03;5097145;28;20194;-49
2023/04/16 03:21:28;;;;;;;6.03;3.00;;;;;;;11.85;79.51;98927.53;5096207;28;20286;-51
2023/04/16 03:24:26;;;;;;;;;;;;;;;;;;;;;
2023/04/16 03:27:24;;;;;;;7.10;3.40;;;;;;;11.85;79.33;98914.53;5101824;28;20240;-57
2023/04/16 03:30:10;;;;;;;4.73;3.57;;;;;;;11.85;79.40;98925.75;5101672;28;20195;-57
2023/04/16 03:33:05;;;;;;;6.10;3.30;;;;;;;11.84;79.36;98931.06;5102250;28;20227;-50
2023/04/16 03:35:54;;;;;;;7.40;3.40;;;;;;;11.87;79.03;98941.28;5099810;28;20195;-49
2023/04/16 03:38:46;;;;;;;5.70;3.57;;;;;;;11.90;78.59;98939.41;5098889;28;20259;-49
2023/04/16 03:41:26;;;;;;;5.10;3.20;;;;;;;11.97;78.19;98942.59;5101757;28;20195;-49
2023/04/16 03:44:18;;;;;;;5.23;3.40;;;;;;;11.93;78.70;98941.91;5098720;28;20198;-48
2023/04/16 03:47:08;;;;;;;4.97;3.57;;;;;;;11.75;79.30;98940.06;5100524;28;20683;-48
2023/04/16 03:49:55;;;;;;;6.47;3.60;;;;;;;11.65;80.71;98941.34;5101045;28;20199;-48
2023/04/16 03:52:46;;;;;;;8.63;3.30;;;;;;;11.72;80.82;98942.78;5099187;28;20303;-48
2023/04/16 03:55:40;;;;;;;6.03;3.70;;;;;;;11.79;79.78;98940.78;5099021;28;20190;-48
2023/04/16 03:58:23;;;;;;;7.27;3.60;;;;;;;11.91;79.12;98953.25;5099897;28;20190;-49
2023/04/16 04:01:12;;;;;;;6.43;3.67;;;;;;;12.03;78.36;98955.34;5100768;28;20223;-50
2023/04/16 04:03:52;;;;;;;8.93;3.60;;;;;;;12.05;77.72;98955.28;5099681;28;20188;-49
2023/04/16 04:06:37;;;;;;;5.47;3.57;;;;;;;12.06;77.56;98960.41;5108677;28;20213;-49
2023/04/16 04:09:30;;;;;;;7.40;3.70;;;;;;;12.19;77.33;98963.31;5111317;28;20763;-47
2023/04/16 04:12:16;;;;;;;8.07;4.57;;;;;;;12.21;76.92;98959.72;5111464;28;20357;-49
2023/04/16 04:15:10;;;;;;;6.33;4.17;;;;;;;12.18;77.64;98959.88;5111895;28;20191;-49
2023/04/16 04:17:57;;;;;;;6.53;4.03;;;;;;;12.26;77.93;98957.78;5111916;28;20191;-57
2023/04/16 04:20:38;;;;;;;8.33;4.83;;;;;;;12.26;78.21;98967.34;5110571;28;20587;-49
2023/04/16 04:23:29;;;;;;;5.77;5.17;;;;;;;12.23;78.75;98957.91;5094817;28;20201;-57
2023/04/16 04:26:11;;;;;;;9.07;6.30;;;;;;;12.28;78.95;98958.56;5091639;28;20636;-57
2023/04/16 04:28:45;;;;;;;15.40;5.93;;;;;;;12.29;79.12;98967.22;5091453;28;20219;-48
2023/04/16 04:31:13;;;;;;;12.13;5.80;;;;;;;12.25;79.43;98963.03;5090103;28;20210;-57
2023/04/16 04:33:47;;;;;;;8.23;5.93;;;;;;;12.28;79.38;98971.56;5090924;28;20711;-50
2023/04/16 04:36:16;;;;;;;6.70;5.63;;;;;;;12.31;79.13;98973.16;5090629;28;20259;-49
2023/04/16 04:38:46;;;;;;;8.03;5.60;;;;;;;12.11;79.50;98940.22;5101461;27;20226;-49
2023/04/16 04:41:21;;;;;;;7.87;5.73;;;;;;;12.34;79.44;98958.28;5110233;27;20218;-49
2023/04/16 04:43:52;;;;;;;8.33;5.87;;;;;;;12.48;78.75;98956.81;5090749;28;20222;-48
2023/04/16 04:46:33;;;;;;;7.23;5.30;;;;;;;12.61;77.29;98965.75;5090660;28;20706;-47
2023/04/16 04:49:06;;;;;;;9.07;5.50;;;;;;;12.61;77.07;98958.78;5089834;28;20606;-48
2023/04/16 04:51:49;;;;;;;6.90;5.50;;;;;;;12.64;77.03;98958.63;5090708;28;20219;-58
2023/04/16 04:54:34;;;;;;;8.53;5.57;;;;;;;12.70;76.29;98960.13;5090183;28;20231;-57
2023/04/16 04:57:10;;;;;;;8.97;6.17;;;;;;;12.62;77.10;98959.63;5089956;28;20447;-56
2023/04/16 05:00:10;;;;;;;8.00;5.37;;;;;;;12.64;77.62;98953.41;5089883;28;20215;-57
2023/04/16 05:03:07;;;;;;;12.40;6.30;;;;;;;12.70;79.84;98957.50;5090755;28;20298;-49
2023/04/16 05:06:03;;;;;;;12.60;6.97;;;;;;;12.64;82.89;98961.22;5088402;28;20219;-57
2023/04/16 05:11:44;;;;;;;8.23;6.53;;;;;;;12.82;83.96;98964.75;5088963;28;20234;-49
2023/04/16 05:14:29;;;;;;;11.97;6.23;;;;;;;12.72;85.58;98971.31;5090796;28;20660;-49
2023/04/16 05:17:00;;;;;;;10.83;7.30;;;;;;;12.69;86.24;98969.69;5089618;28;20211;-49
2023/04/16 05:19:49;;;;;;;10.43;6.50;;;;;;;12.79;85.73;98975.31;5091060;28;20661;-59
2023/04/16 05:22:36;;;;;;;9.17;6.30;;;;;;;13.02;83.87;98979.44;5089652;28;20222;-57
2023/04/16 05:25:16;;;;;;;8.87;5.80;;;;;;;13.15;82.73;98983.19;5088977;28;20726;-49
2023/04/16 05:27:59;;;;;;;11.97;6.53;;;;;;;13.38;82.20;98980.31;5089642;28;20223;-48
2023/04/16 05:30:40;;;;;;;7.27;5.80;;;;;;;13.48;78.93;98978.09;5089855;28;20251;-49
2023/04/16 05:33:29;;;;;;;7.23;5.80;;;;;;;13.70;77.27;98985.72;5089921;28;20231;-57
2023/04/16 05:36:22;;;;;;;9.93;5.97;;;;;;;14.07;75.55;98975.09;5089670;28;20717;-56
2023/04/16 05:39:14;;;;;;;9.63;5.47;;;;;;;14.69;72.44;98975.34;5086510;28;20234;-57
2023/04/16 05:41:48;;;;;;;9.33;5.00;;;;;;;15.07;68.92;98992.38;5090956;28;20713;-55
2023/04/16 05:44:30;;;;;;;11.27;5.43;;;;;;;15.78;65.11;98997.97;5108127;28;20229;-50
2023/04/16 05:47:20;;;;;;;6.47;5.87;;;;;;;16.81;60.71;98990.03;5107976;28;20218;-50
2023/04/16 05:50:08;;;;;;;7.13;5.90;;;;;;;18.61;54.54;98998.16;5108430;28;20254;-56
2023/04/16 05:52:40;;;;;;;9.85;6.80;;;;;;;20.53;49.09;98999.78;5107775;28;20234;-58
2023/04/16 05:55:12;;;;;;;7.45;4.75;;;;;;;22.12;44.51;99000.97;5109720;28;20785;-58
2023/04/16 05:57:50;;;;;;;8.02;5.50;;;;;;;24.00;40.30;98999.28;5109608;28;20221;-55
2023/04/16 06:00:27;;;;;;;6.40;4.55;;;;;;;25.08;37.63;98997.00;5109851;28;20263;-51
2023/04/16 06:03:04;;;;;;;5.03;4.35;;;;;;;26.06;35.35;99001.47;5107767;27;20218;-51
2023/04/16 06:06:05;;;;;;;6.13;3.80;;;;;;;26.57;34.58;99004.16;5101649;28;20698;-57
2023/04/16 06:08:51;;;;;;;5.90;4.20;;;;;;;27.08;32.92;99010.41;5109699;28;20651;-59
2023/04/16 06:11:43;;;;;;;6.22;4.22;;;;;;;26.93;32.73;99004.03;5107406;28;20222;-58
2023/04/16 06:14:21;;;;;;;6.35;3.58;;;;;;;27.10;32.31;99013.72;5085623;28;20235;-60
2023/04/16 06:17:17;;;;;;;4.95;3.70;;;;;;;27.29;31.81;99004.63;5089322;28;20215;-53
2023/04/16 06:19:52;;;;;;;5.63;4.10;;;;;;;28.57;30.99;98994.16;5088454;28;20702;-52
2023/04/16 06:22:23;;;;;;;4.35;3.92;;;;;;;28.71;30.24;98997.97;5093133;28;20221;-54
2023/04/16 06:24:51;;;;;;;4.70;4.13;;;;;;;28.74;30.22;98994.94;5108729;28;20218;-51
2023/04/16 06:27:19;;;;;;;5.97;4.07;;;;;;;28.50;30.33;98995.84;5109807;28;20698;-50
2023/04/16 06:29:47;;;;;;;7.57;3.97;;;;;;;26.70;32.15;98985.06;5109354;28;20218;-54
2023/04/16 06:32:41;;;;;;;5.88;3.75;;;;;;;24.97;34.65;98987.41;5109547;28;20739;-60
2023/04/16 06:35:43;;;;;;;7.22;3.85;;;;;;;24.75;34.96;98982.47;5109556;28;20725;-59
2023/04/16 06:38:17;;;;;;;5.32;3.88;;;;;;;24.95;34.79;98986.72;5108556;28;20221;-58
2023/04/16 06:41:09;;;;;;;5.18;4.03;;;;;;;25.75;34.03;98979.75;5068869;28;20223;-56
2023/04/16 06:43:49;;;;;;;6.07;4.03;;;;;;;26.39;32.94;98987.41;5048936;28;20225;-49
2023/04/16 06:46:25;;;;;;;4.80;3.58;;;;;;;26.70;32.09;98999.22;5046831;28;20662;-49
2023/04/16 06:49:06;;;;;;;5.18;3.35;;;;;;;27.68;30.75;98994.22;5049475;28;20220;-50
2023/04/16 06:51:45;;;;;;;4.55;3.33;;;;;;;28.20;30.42;98996.59;5069194;28;20203;-58
2023/04/16 06:54:29;;;;;;;4.63;3.45;;;;;;;27.95;30.66;99004.56;5070132;28;20219;-58
2023/04/16 06:57:04;;;;;;;9.35;3.40;;;;;;;27.94;30.93;99005.56;5073225;28;20200;-50
2023/04/16 06:59:35;;;;;;;4.88;2.90;;;;;;;28.97;29.92;99001.25;5069915;28;20711;-50
2023/04/16 07:02:19;;;;;;;5.95;3.08;;;;;;;30.09;28.25;99003.38;5073430;28;20298;-51
2023/04/16 07:04:59;;;;;;;5.28;3.08;;;;;;;31.05;27.31;99008.69;5071590;28;20200;-50
2023/04/16 07:07:48;;;;;;;4.20;2.85;;;;;;;30.32;27.91;98996.13;5071183;28;20195;-49
2023/04/16 07:10:53;;;;;;;5.70;2.85;;;;;;;30.29;28.07;98993.81;5070396;28;20200;-50
2023/04/16 07:13:45;;;;;;;5.20;3.05;;;;;;;30.01;28.31;98998.13;5071870;28;20245;-50
2023/04/16 07:16:18;;;;;;;3.58;3.15;;;;;;;30.09;28.55;98998.03;5063622;28;20688;-50
2023/04/16 07:19:09;;;;;;;3.75;3.20;;;;;;;30.51;27.65;99004.63;5071414;28;20222;-49
2023/04/16 07:22:00;;;;;;;5.28;3.13;;;;;;;31.40;26.83;98995.53;5072278;28;20234;-51
2023/04/16 07:24:28;;;;;;;8.10;2.83;;;;;;;30.67;27.29;98996.47;5072200;28;20235;-50
2023/04/16 07:27:05;;;;;;;4.78;4.32;;;;;;;30.75;27.40;98996.34;5057720;28;20626;-57
2023/04/16 07:29:58;;;;;;;6.43;3.90;;;;;;;30.59;27.34;98983.13;5052630;28;20196;-58
2023/04/16 07:32:41;;;;;;;6.68;4.25;;;;;;;30.30;27.63;98987.44;5049945;28;20254;-50
2023/04/16 07:35:27;;;;;;;7.60;2.80;;;;;;;29.31;27.92;98967.97;5051156;28;20220;-49
2023/04/16 07:38:17;;;;;;;9.35;3.10;;;;;;;28.98;28.51;98988.72;5051647;28;20617;-49
2023/04/16 07:41:14;;;;;;;6.35;2.65;;;;;;;28.58;29.76;98989.66;5051540;28;20196;-50
2023/04/16 07:44:15;;;;;;;11.25;5.00;;;;;;;27.81;30.49;98979.41;5052387;28;20195;-49
2023/04/16 07:47:02;;;;;;;7.10;3.42;;;;;;;27.34;32.01;98971.16;5051825;28;20196;-49
2023/04/16 07:49:51;;;;;;;5.10;3.25;;;;;;;27.35;31.84;98962.16;5052207;28;20239;-48
2023/04/16 07:52:42;;;;;;;6.07;2.72;;;;;;;27.75;32.00;98968.59;5052083;28;20200;-48
2023/04/16 07:55:22;;;;;;;3.47;2.80;;;;;;;27.53;31.22;98969.19;5052082;28;20224;-49
2023/04/16 07:58:04;;;;;;;3.55;2.67;;;;;;;27.83;31.24;98956.06;5051392;28;20205;-48
2023/04/16 08:00:57;;;;;;;3.53;3.15;;;;;;;27.51;31.96;98957.88;5052006;28;20192;-49
2023/04/16 08:03:50;;;;;;;6.15;2.97;;;;;;;27.48;31.66;98959.84;5050825;28;20657;-51
2023/04/16 08:06:45;;;;;;;;;;;;;;;;;;;;;
2023/04/16 08:09:31;;;;;;;7.10;5.32;;;;;;;25.55;34.43;98960.44;5052195;28;20602;-59
2023/04/16 08:15:20;;;;;;;6.25;4.57;;;;;;;23.75;37.29;98956.47;5050692;28;20317;-49
2023/04/16 08:18:27;;;;;;;5.80;4.78;;;;;;;23.39;37.79;98957.13;5051606;28;20950;-50
2023/04/16 08:21:20;;;;;;;7.13;5.05;;;;;;;22.87;39.23;98948.56;5051313;28;20627;-48
2023/04/16 08:24:12;;;;;;;5.93;3.80;;;;;;;22.46;40.08;98945.03;5051169;28;20192;-48
2023/04/16 08:27:03;;;;;;;7.63;5.90;;;;;;;22.25;40.89;98954.00;5050063;28;20232;-49
2023/04/16 08:29:52;;;;;;;6.78;3.78;;;;;;;22.08;41.46;98945.72;5050806;28;20216;-47
2023/04/16 08:35:26;;;;;;;4.50;3.67;;;;;;;21.40;43.20;98951.44;5048844;28;20225;-48
2023/04/16 08:38:03;;;;;;;5.07;3.25;;;;;;;20.55;45.05;98953.00;5053302;28;20683;-57
2023/04/16 08:40:53;;;;;;;9.68;5.63;;;;;;;20.22;46.15;98957.28;5087952;28;20306;-56
2023/04/16 08:43:43;;;;;;;4.88;3.47;;;;;;;19.84;46.78;98943.59;5093543;27;20231;-55
2023/04/16 08:46:26;;;;;;;4.72;2.97;;;;;;;19.45;48.06;98947.38;5091681;28;20671;-56
2023/04/16 08:49:08;;;;;;;5.70;3.65;;;;;;;19.51;48.02;98939.91;5091093;28;20199;-56
2023/04/16 08:52:03;;;;;;;6.30;3.50;;;;;;;19.97;47.37;98943.50;5091612;28;20667;-56
2023/04/16 08:54:46;;;;;;;4.10;3.70;;;;;;;20.37;47.04;98936.00;5091492;28;20284;-53
2023/04/16 08:57:39;;;;;;;4.22;3.83;;;;;;;20.91;45.62;98926.34;5090332;28;20217;-58
2023/04/16 09:00:30;;;;;;;8.13;4.00;;;;;;;21.37;44.80;98925.28;5091238;28;20195;-56
2023/04/16 09:03:12;;;;;;;11.13;4.22;;;;;;;22.22;43.19;98912.81;5090379;28;20672;-56
2023/04/16 09:06:06;;;;;;;6.45;4.20;;;;;;;23.98;40.40;98922.53;5091823;28;20191;-56
2023/04/16 09:09:03;;;;;;;5.80;3.85;;;;;;;25.82;36.77;98930.31;5091128;28;20241;-52
2023/04/16 09:11:51;;;;;;;6.43;3.63;;;;;;;26.96;33.69;98918.47;5091572;28;20209;-52
2023/04/16 09:14:37;;;;;;;7.50;4.05;;;;;;;27.46;32.42;98910.38;5107148;28;20207;-53
2023/04/16 09:17:11;;;;;;;3.63;2.80;;;;;;;26.67;31.71;98909.03;5089071;28;20202;-53
2023/04/16 09:19:57;;;;;;;4.20;3.05;;;;;;;28.05;30.49;98906.53;5090615;28;20286;-53
2023/04/16 09:22:57;;;;;;;6.35;3.90;;;;;;;29.15;29.53;98910.09;5090821;28;20195;-53
2023/04/16 09:25:36;;;;;;;4.93;3.28;;;;;;;29.47;28.64;98909.91;5092172;28;20222;-52
2023/04/16 09:28:10;;;;;;;3.70;3.25;;;;;;;29.37;28.18;98911.97;5090727;28;20223;-53
2023/04/16 09:30:45;;;;;;;3.63;3.33;;;;;;;29.91;27.78;98903.84;5091111;28;20314;-55
2023/04/16 09:33:20;;;;;;;3.55;3.13;;;;;;;30.80;27.02;98902.03;5090277;28;20262;-56
2023/04/16 09:36:04;;;;;;;6.07;3.35;;;;;;;30.81;27.16;98901.84;5108094;28;20283;-59
2023/04/16 09:38:51;;;;;;;9.98;3.20;;;;;;;31.15;26.35;98900.41;5110010;28;20256;-57
2023/04/16 09:41:46;;;;;;;4.15;2.78;;;;;;;30.37;26.87;98885.78;5109856;28;20198;-56
2023/04/16 09:44:36;;;;;;;4.13;3.10;;;;;;;29.71;28.06;98889.31;5111451;28;20259;-56
2023/04/16 09:47:19;;;;;;;4.57;2.72;;;;;;;29.59;27.50;98896.94;5111434;28;20234;-57
2023/04/16 09:49:48;;;;;;;4.50;3.13;;;;;;;29.75;27.47;98887.94;5107705;28;20953;-57
2023/04/16 09:52:31;;;;;;;6.13;3.00;;;;;;;28.88;29.02;98898.09;5090784;28;20196;-57
2023/04/16 09:55:08;;;;;;;4.60;3.10;;;;;;;27.33;30.65;98891.38;5090695;28;20223;-57
2023/04/16 09:57:51;;;;;;;5.05;3.20;;;;;;;26.14;32.76;98872.00;5090668;28;20655;-58
2023/04/16 10:00:30;;;;;;;4.30;2.92;;;;;;;25.05;34.16;98872.50;5089883;28;20735;-53
2023/04/16 10:03:17;;;;;;;8.25;3.22;;;;;;;24.43;35.45;98868.78;5105924;27;20201;-52
2023/04/16 10:05:46;;;;;;;3.45;3.15;;;;;;;24.35;35.17;98874.84;5126975;27;20197;-53
2023/04/16 10:08:17;;;;;;;7.53;2.60;;;;;;;23.64;35.43;98871.84;5131105;27;20585;-52
2023/04/16 10:10:47;;;;;;;3.35;2.97;;;;;;;23.76;35.97;98870.69;5130530;27;20190;-53
2023/04/16 10:13:24;;;;;;;4.63;2.50;;;;;;;23.09;36.77;98882.16;5099561;28;20682;-51
2023/04/16 10:15:59;;;;;;;4.10;2.85;;;;;;;22.61;38.32;98871.47;5098176;28;20211;-55
2023/04/16 10:18:32;;;;;;;3.95;2.53;;;;;;;22.34;39.05;98860.69;5097115;28;20198;-57
2023/04/16 10:21:04;;;;;;;3.60;2.90;;;;;;;22.08;39.15;98857.66;5097301;28;20199;-56
2023/04/16 10:23:46;;;;;;;4.90;3.70;;;;;;;21.94;39.80;98860.59;5098596;28;20196;-56
2023/04/16 10:26:19;;;;;;;4.35;2.67;;;;;;;21.62;40.41;98858.91;5096606;28;20737;-56
2023/04/16 10:29:03;;;;;;;4.10;2.88;;;;;;;21.73;40.17;98869.41;5098400;28;20663;-56
2023/04/16 10:31:37;;;;;;;5.05;2.88;;;;;;;21.57;41.40;98853.16;5099140;28;20203;-52
2023/04/16 10:34:23;;;;;;;7.05;3.88;;;;;;;21.36;41.95;98839.97;5099523;28;20214;-53
2023/04/16 10:36:54;;;;;;;5.88;2.78;;;;;;;21.66;41.92;98846.28;5104557;28;20204;-56
2023/04/16 10:39:30;;;;;;;3.67;2.80;;;;;;;21.89;41.52;98839.03;5094690;28;20223;-57
2023/04/16 10:42:13;;;;;;;4.93;2.78;;;;;;;22.26;41.16;98842.81;5097543;28;20615;-56
2023/04/16 10:44:43;;;;;;;3.65;2.70;;;;;;;22.42;40.88;98842.31;5102984;28;20199;-56
2023/04/16 10:47:15;;;;;;;5.70;2.75;;;;;;;22.59;40.41;98838.16;5098267;28;20208;-57
2023/04/16 10:49:53;;;;;;;3.05;2.63;;;;;;;22.76;40.44;98848.97;5099288;28;20191;-57
2023/04/16 10:52:25;;;;;;;3.22;2.63;;;;;;;22.68;40.19;98843.50;5099281;28;20813;-57
2023/04/16 10:54:55;;;;;;;4.32;2.80;;;;;;;22.22;41.15;98846.72;5097847;28;20626;-56
2023/04/16 10:57:31;;;;;;;7.03;3.08;;;;;;;21.90;41.76;98845.97;5103205;28;20587;-56
2023/04/16 11:00:09;;;;;;;7.07;2.90;;;;;;;21.40;43.44;98842.34;5108643;28;20670;-51
2023/04/16 11:02:45;;;;;;;4.63;2.67;;;;;;;21.51;43.31;98837.00;5107569;28;20553;-52
2023/04/16 11:05:22;;;;;;;5.75;2.60;;;;;;;21.44;43.50;98838.50;5095694;28;20202;-51
2023/04/16 11:07:53;;;;;;;5.13;2.88;;;;;;;21.14;44.55;98831.28;5098455;28;20586;-53
2023/04/16 11:10:27;;;;;;;9.25;3.35;;;;;;;21.20;44.69;98828.19;5097915;28;20186;-55
2023/04/16 11:13:08;;;;;;;7.32;2.75;;;;;;;21.34;44.39;98830.50;5096823;28;20416;-52
2023/04/16 11:15:41;;;;;;;3.67;2.60;;;;;;;21.33;45.11;98811.19;5096742;28;20689;-52
2023/04/16 11:18:20;;;;;;;4.80;2.95;;;;;;;21.77;44.76;98826.88;5095779;28;20191;-52
2023/04/16 11:20:56;;;;;;;5.32;2.78;;;;;;;21.83;44.81;98821.91;5097721;28;20260;-55
2023/04/16 11:23:24;;;;;;;6.40;3.35;;;;;;;22.00;44.76;98809.91;5096131;28;20251;-52
2023/04/16 11:25:56;;;;;;;10.27;3.20;;;;;;;21.76;46.66;98806.72;5088770;28;20252;-52
2023/04/16 11:28:35;;;;;;;10.07;3.10;;;;;;;21.51;48.36;98794.75;5088203;28;20290;-51
2023/04/16 11:31:15;;;;;;;9.38;3.25;;;;;;;21.42;48.80;98801.66;5100819;28;20290;-52
2023/04/16 11:33:43;;;;;;;5.82;3.58;;;;;;;21.31;49.28;98788.53;5088619;28;20612;-52
2023/04/16 11:36:19;;;;;;;5.82;3.40;;;;;;;21.09;50.23;98780.72;5094101;28;20728;-52
2023/04/16 11:38:47;;;;;;;10.55;3.20;;;;;;;21.13;50.42;98768.91;5108207;28;20215;-52
2023/04/16 11:41:28;;;;;;;10.23;3.80;;;;;;;21.18;50.48;98757.06;5109297;28;20199;-52
2023/04/16 11:44:06;;;;;;;9.40;3.80;;;;;;;21.53;50.32;98762.00;5111776;28;20194;-52
2023/04/16 11:47:13;;;;;;;11.23;3.70;;;;;;;21.60;50.63;98759.66;5110412;28;20240;-52
2023/04/16 11:49:44;;;;;;;9.73;3.90;;;;;;;21.35;52.48;98742.41;5099811;28;20194;-51
2023/04/16 11:52:12;;;;;;;7.70;3.30;;;;;;;21.26;53.68;98740.56;5099179;28;20195;-52
2023/04/16 11:54:40;;;;;;;8.68;3.75;;;;;;;21.23;53.58;98738.19;5096455;28;20219;-51
2023/04/16 11:57:12;;;;;;;6.38;3.20;;;;;;;21.26;52.89;98738.75;5105006;28;20206;-52
2023/04/16 11:59:47;;;;;;;8.25;3.60;;;;;;;21.28;52.52;98742.13;5109283;28;20638;-51
2023/04/16 12:02:17;;;;;;;5.55;4.07;;;;;;;21.19;52.38;98734.16;5097558;28;20218;-55
2023/04/16 12:04:59;;;;;;;10.77;3.80;;;;;;;21.07;51.46;98741.25;5092202;28;20187;-55
2023/04/16 12:07:32;;;;;;;4.88;3.38;;;;;;;20.84;51.64;98692.22;5091830;28;20235;-55
2023/04/16 12:10:19;;;;;;;10.32;3.90;;;;;;;20.97;50.95;98733.28;5109987;28;20260;-58
2023/04/16 12:13:00;;;;;;;5.05;3.55;;;;;;;20.83;52.60;98724.84;5112444;28;20209;-57
2023/04/16 12:16:03;;;;;;;6.10;3.42;;;;;;;20.70;54.37;98730.31;5112494;28;20620;-51
2023/04/16 12:19:06;;;;;;;7.60;4.50;;;;;;;20.74;57.80;98733.53;5112368;28;20225;-52
2023/04/16 12:21:46;;;;;;;5.28;3.53;;;;;;;20.48;61.11;98730.41;5104686;28;20202;-51
2023/04/16 12:24:23;;;;;;;7.00;3.88;;;;;;;20.26;64.89;98732.09;5112068;28;20200;-57
2023/04/16 12:27:01;;;;;;;11.13;3.65;;;;;;;19.98;72.60;98739.72;5111724;28;20205;-51
2023/04/16 12:29:44;;;;;;;6.65;4.55;;;;;;;19.56;76.43;98727.16;5111450;28;20201;-56
2023/04/16 12:32:42;;;;;;;9.18;4.43;;;;;;;19.19;77.75;98730.94;5110727;28;20202;-52
2023/04/16 12:35:13;;;;;;;11.82;5.93;;;;;;;18.78;80.25;98724.38;5111475;28;20226;-52
2023/04/16 12:37:51;;;;;;;13.32;4.95;;;;;;;18.62;85.48;98731.75;5111929;28;20632;-56
2023/04/16 12:40:20;;;;;;;6.25;4.45;;;;;;;18.23;91.38;98711.81;5111621;28;20230;-56
2023/04/16 12:42:49;;;;;;;6.20;4.25;;;;;;;18.22;87.97;98707.53;5111882;28;20204;-56
2023/04/16 12:45:26;;;;;;;8.47;4.50;;;;;;;18.08;88.75;98700.63;5111624;28;20191;-55
2023/04/16 12:47:59;;;;;;;7.73;4.00;;;;;;;17.93;92.12;98701.75;5111695;28;20652;-57
2023/04/16 12:50:47;;;;;;;4.53;3.43;;;;;;;17.86;86.98;98690.00;5111790;28;20194;-56
2023/04/16 12:53:27;;;;;;;7.20;3.27;;;;;;;17.96;80.33;98687.56;5111554;28;20191;-51
2023/04/16 12:56:09;;;;;;;6.33;2.60;;;;;;;18.00;77.44;98695.09;5111186;28;20313;-55
2023/04/16 12:58:53;;;;;;;1.50;1.40;;;;;;;18.08;61.27;98697.16;5108387;28;20203;-55
2023/04/16 13:01:38;;;;;;;2.53;1.60;;;;;;;18.20;63.83;98711.19;5111649;28;20199;-55
2023/04/16 13:04:11;;;;;;;2.03;1.10;;;;;;;18.33;57.97;98725.13;5111075;28;20209;-56
2023/04/16 13:06:42;;;;;;;4.43;1.67;;;;;;;18.18;70.57;98698.19;5111182;28;20187;-55
2023/04/16 13:09:27;;;;;;;1.20;1.10;;;;;;;18.28;64.53;98696.59;5111236;28;20237;-55
2023/04/16 13:12:19;;;;;;;3.07;1.40;;;;;;;18.37;66.71;98681.94;5109452;28;20194;-55
2023/04/16 13:15:03;;;;;;;2.17;1.73;;;;;;;18.61;69.20;98687.19;5110475;28;20583;-57